Flight Track Log - Related Links

Times and Time Zones

All times are in EDT time to prevent confusion due to time zone crossing. See the ASQ6115 flight status page for this flight to view local times or setup timezone preferences in your user account.

Time Position Orientation Groundspeed Altitude Reporting Facility
EDT Latitude Longitude Course Direction KTS MPH feet Rate Location/Type
Mon 04:15:14 PM 26.2000 -98.1722 49° Northeast 206 237 2,900  Level Houston Center
Mon 04:16:17 PM 26.2575 -98.1158 41° Northeast 248 285 5,100 2,173 Climbing Houston Center
Mon 04:17:00 PM 26.4300 -98.1100 24° Northeast  Level FlightAware Approximate
Mon 04:17:21 PM 26.3139 -98.0550 44° Northeast 268 308 7,500  Level Houston Center
Mon 04:18:00 PM 26.4952 -98.0774 24° Northeast  Level FlightAware Approximate
Mon 04:18:21 PM 26.3703 -97.9906 46° Northeast 279 321 9,400  Level Houston Center
Mon 04:19:00 PM 26.5606 -98.0453 22° Northeast  Level FlightAware Approximate
Mon 04:19:23 PM 26.4286 -97.9231 46° Northeast 299 344 10,700  Level Houston Center
Mon 04:20:25 PM 26.5011 -97.8428 45° Northeast 335 386 11,600 871 Climbing Houston Center
Mon 04:21:27 PM 26.5731 -97.7608 46° Northeast 363 418 12,500 823 Climbing Houston Center
Mon 04:22:29 PM 26.6469 -97.6739 46° Northeast 400 460 13,300 823 Climbing Houston Center
Mon 04:23:31 PM 26.7450 -97.6108 30° Northeast 381 438 14,200 864 Climbing Houston Center
Mon 04:24:34 PM 26.8531 -97.5947 North 390 449 15,100 864 Climbing Houston Center
Mon 04:25:36 PM 26.9728 -97.5772 North 390 449 16,000 774 Climbing Houston Center
Mon 04:26:38 PM 27.0800 -97.5636 North 394 453 16,700 726 Climbing Houston Center
Mon 04:27:40 PM 27.1800 -97.5503 North 391 450 17,500 774 Climbing Houston Center
Mon 04:28:42 PM 27.2878 -97.5342 North 387 445 18,300 871 Climbing Houston Center
Mon 04:29:44 PM 27.4164 -97.5153 North 389 448 19,300 871 Climbing Houston Center
Mon 04:30:46 PM 27.5247 -97.4994 North 391 450 20,100 1,258 Climbing Houston Center
Mon 04:31:48 PM 27.6311 -97.4836 North 389 448 21,900 2,032 Climbing Houston Center
Mon 04:32:50 PM 27.7297 -97.4703 North 363 418 24,300 1,597 Climbing Houston Center
Mon 04:33:52 PM 27.8117 -97.4183 29° Northeast 347 399 25,200 816 Climbing Houston Center
Mon 04:34:55 PM 27.8978 -97.3586 32° Northeast 358 412 26,000 816 Climbing Houston Center
Mon 04:35:57 PM 27.9931 -97.2906 32° Northeast 375 432 26,900 484 Climbing Houston Center
Mon 04:36:59 PM 28.1186 -97.2364 21° North 406 467 27,000 48 Climbing Houston Center
Mon 04:38:01 PM 28.2336 -97.1994 16° North 426 490 27,000  Level Houston Center
Mon 04:39:03 PM 28.3531 -97.1611 16° North 442 509 27,000 -194 Level Houston Center
Mon 04:40:05 PM 28.4767 -97.1256 14° North 454 522 26,600 -677 Descending Houston Center
Mon 04:41:07 PM 28.6044 -97.0936 12° North 466 536 25,600 -968 Descending Houston Center
Mon 04:42:09 PM 28.7317 -97.0725 North 461 531 24,600 -823 Descending Houston Center
Mon 04:43:11 PM 28.8764 -97.0469 North 443 510 23,900 -336 Descending Houston Center
Mon 04:44:14 PM 28.9808 -97.0019 21° North 420 483 23,900 48 Level Houston Center
Mon 04:45:16 PM 29.0611 -96.9114 45° Northeast 408 470 24,000 -290 Climbing Houston Center
Mon 04:46:18 PM 29.1328 -96.8056 52° Northeast 423 487 23,300 -968 Descending Houston Center
Mon 04:47:20 PM 29.2025 -96.6978 53° Northeast 428 493 22,000 -1,645 Descending Houston Center
Mon 04:48:22 PM 29.2833 -96.5747 53° Northeast 409 471 19,900 -2,032 Descending Houston Center
Mon 04:49:24 PM 29.3483 -96.4747 53° Northeast 397 457 17,800 -2,477 Descending Houston Center
Mon 04:50:11 PM 29.4031 -96.3911 53° Northeast 392 451 15,400 -2,903 Descending Houston Center
Mon 04:50:26 PM 29.4131 -96.3744 55° Northeast 393 452 14,800 -3,117 Descending Houston Center
Mon 04:51:28 PM 29.4750 -96.2783 53° Northeast 380 437 11,400 -2,352 Descending Houston Center
Mon 04:52:31 PM 29.5342 -96.1858 54° Northeast 365 420 9,900 -1,008 Descending Houston Center
Mon 04:53:27 PM 29.5811 -96.0931 60° Northeast 280 322 9,400 -484 Descending Houston Center
Mon 04:54:35 PM 29.6253 -96.0086 59° Northeast 289 333 8,900 -308 Descending Houston Center
Mon 04:55:24 PM 29.6714 -95.9458 50° Northeast 297 342 8,800 -703 Descending Houston Center
Mon 04:56:26 PM 29.7433 -95.9064 25° Northeast 289 333 7,600 -878 Descending Houston Center
Mon 04:57:27 PM 29.8114 -95.8672 27° Northeast 243 280 7,000 -295 Descending Houston Center
Mon 04:58:28 PM 29.8753 -95.8311 26° Northeast 255 293 7,000 -158 Level Houston Center
Mon 04:58:43 PM 29.8872 -95.8214 35° Northeast 248 285 6,800 -1,059 Descending Houston Center
Mon 04:59:36 PM 29.9283 -95.7669 49° Northeast 237 273 5,800 -1,053 Descending Houston Center
Mon 05:00:37 PM 29.9653 -95.7097 53° Northeast 227 261 4,800 -806 Descending Houston Center
Mon 05:01:50 PM 29.9847 -95.6328 74° East 230 265 4,000 -634 Descending Houston Center
Mon 05:02:40 PM 29.9922 -95.5642 83° East 224 258 3,500 -600 Descending Houston Center

Login

Don't have an account? Register now (free) for customized features, flight alerts, and more!